»·PEaware :: DAL185 KTPA-KSNA

DAL185 :: KTPA-KSNA

FLIGHT INFORMATION

Flight Status: Arrived
Operator:
Delta Air Lines
More flights by this operator :: More flights under this callsign
Pilot: Andrew N. (12823)
Aircraft: BOEING 757-200
(B752)
More flights by this aircraft type
Origin: KTPA Tampa Intl
United States
Destination: KSNA John Wayne-Orange Co
United States
More flights between these airports :: More routes between these airports
Route: +SYKES7 SIMMR REMIS LEV J86 ELP SSO J4 BXK EMLLD DSNEE1
File this flight plan on PilotEdge
Remarks:
Altitude:
(Current/Filed)
36,000ft
Speed:
(Current/Filed)
475kts
Departed: 29-May-17 05:02 AM
Arrived: 29-May-17 09:38 AM
Distance/Time
Traveled:
1843nm/4:36
Distance/Time
To Go:
Arrived

Flight Plot

Page will automatically refresh every two minutes.

Flight plan parsing failed; only flown route is shown


Map Options




Map Legend


Flown Route
Filed Route
Departure Airport
Arrival Airport
Navaid (VOR, NDB)
Fix

Horizontal Profiles

Position Reports

Time Latitude Longitude Heading Altitude Ground
Speed
29-May-17 05:00 27.979965 -82.539583 125 22ft 1kts
29-May-17 05:01 27.978873 -82.539763 181 21ft 15kts
29-May-17 05:02 27.972740 -82.540794 182 16ft 15kts
29-May-17 05:03 27.965092 -82.541044 181 15ft 20kts
29-May-17 05:04 27.972743 -82.542039 1 16ft 107kts
29-May-17 05:05 28.017572 -82.542084 357 1014ft 194kts
29-May-17 05:06 28.080145 -82.545629 357 3229ft 242kts
29-May-17 05:07 28.141092 -82.566880 299 6055ft 264kts
29-May-17 05:08 28.117044 -82.634911 216 8772ft 265kts
29-May-17 05:09 28.055213 -82.692123 216 10446ft 322kts
29-May-17 05:10 27.990308 -82.776658 229 11763ft 394kts
29-May-17 05:11 27.920885 -82.877541 229 13911ft 421kts
29-May-17 05:12 27.847963 -82.982696 229 16657ft 433kts
29-May-17 05:13 27.773036 -83.090431 230 19205ft 442kts
29-May-17 05:14 27.696802 -83.199733 231 21512ft 449kts
29-May-17 05:15 27.654152 -83.331401 268 23358ft 462kts
29-May-17 05:16 27.673289 -83.475550 280 25114ft 470kts
29-May-17 05:17 27.695195 -83.619411 279 27480ft 459kts
29-May-17 05:18 27.716138 -83.758966 279 29628ft 447kts
29-May-17 05:19 27.736690 -83.896341 280 31051ft 445kts
29-May-17 05:20 27.756971 -84.032800 280 32418ft 442kts
29-May-17 05:21 27.776879 -84.167658 281 33746ft 437kts
29-May-17 05:22 27.792244 -84.303118 278 34865ft 435kts
29-May-17 05:23 27.805446 -84.438498 279 35815ft 433kts
29-May-17 05:24 27.818458 -84.572978 279 36118ft 431kts
29-May-17 05:25 27.831329 -84.707355 278 36130ft 432kts
29-May-17 05:26 27.844009 -84.841115 278 36128ft 431kts
29-May-17 05:27 27.856670 -84.975632 277 36107ft 434kts
29-May-17 05:28 27.869392 -85.113088 277 36131ft 444kts
29-May-17 05:29 27.882529 -85.251192 282 36124ft 443kts
29-May-17 05:30 27.918312 -85.384262 289 36122ft 443kts
29-May-17 05:31 27.952250 -85.505329 289 36120ft 443kts
29-May-17 05:32 27.989851 -85.637888 289 36119ft 443kts
29-May-17 05:33 28.027091 -85.769604 287 36097ft 443kts
29-May-17 05:34 28.063486 -85.902333 288 36096ft 442kts
29-May-17 05:35 28.100150 -86.033251 288 36109ft 442kts
29-May-17 05:36 28.136328 -86.162440 288 36126ft 442kts
29-May-17 05:37 28.173379 -86.295212 288 36125ft 442kts
29-May-17 05:38 28.210054 -86.427166 288 36124ft 442kts
29-May-17 05:39 28.246786 -86.559867 288 36123ft 442kts
29-May-17 05:40 28.283218 -86.692051 288 36101ft 442kts
29-May-17 05:41 28.319513 -86.824278 288 36107ft 442kts
29-May-17 05:42 28.355888 -86.957113 289 36125ft 442kts
29-May-17 05:43 28.396757 -87.087175 286 36129ft 425kts
29-May-17 05:44 28.432681 -87.216289 286 36125ft 432kts
29-May-17 05:45 28.467987 -87.346481 286 36122ft 431kts
29-May-17 05:46 28.498263 -87.477012 285 36094ft 431kts
29-May-17 05:47 28.531674 -87.607433 286 36093ft 431kts
29-May-17 05:48 28.565530 -87.735416 286 36127ft 431kts
29-May-17 05:49 28.600057 -87.865661 286 36126ft 431kts
29-May-17 05:50 28.628743 -87.974184 286 36125ft 430kts
29-May-17 05:51 28.668698 -88.125947 285 36097ft 430kts
29-May-17 05:52 28.702781 -88.256024 285 36095ft 430kts
29-May-17 05:53 28.738068 -88.386040 286 36094ft 430kts
29-May-17 05:54 28.766644 -88.494036 285 36120ft 430kts
29-May-17 05:55 28.800417 -88.624022 285 36119ft 430kts
29-May-17 05:56 28.832806 -88.749610 285 36100ft 430kts
29-May-17 05:57 28.871797 -88.901581 285 36099ft 430kts
29-May-17 05:58 28.899521 -89.009943 284 36092ft 430kts
29-May-17 05:59 28.932903 -89.141376 284 36097ft 433kts
29-May-17 06:00 28.971753 -89.294848 284 36096ft 433kts
29-May-17 06:01 28.999336 -89.404317 284 36095ft 433kts
29-May-17 06:02 29.032435 -89.536207 284 36120ft 433kts
29-May-17 06:03 29.065186 -89.667314 284 36126ft 433kts
29-May-17 06:04 29.098588 -89.798783 284 36127ft 433kts
29-May-17 06:05 29.130079 -89.923918 284 36125ft 433kts
29-May-17 06:06 29.162500 -90.055119 283 36125ft 433kts
29-May-17 06:07 29.188839 -90.188647 279 36123ft 432kts
29-May-17 06:08 29.211647 -90.322901 279 36095ft 432kts
29-May-17 06:09 29.234249 -90.457507 279 36093ft 432kts
29-May-17 06:10 29.256673 -90.592433 278 36092ft 432kts
29-May-17 06:11 29.278853 -90.726355 278 36100ft 431kts
29-May-17 06:12 29.301036 -90.860848 278 36099ft 431kts
29-May-17 06:13 29.323066 -90.995679 278 36098ft 431kts
29-May-17 06:14 29.344989 -91.130566 278 36097ft 432kts
29-May-17 06:15 29.366247 -91.265022 278 36043ft 432kts
29-May-17 06:16 29.387877 -91.400591 278 36040ft 432kts
29-May-17 06:17 29.409262 -91.535039 278 36039ft 432kts
29-May-17 06:18 29.430305 -91.670311 277 36045ft 432kts
29-May-17 06:19 29.451322 -91.805231 277 36045ft 432kts
29-May-17 06:20 29.472402 -91.940554 277 36045ft 431kts
29-May-17 06:21 29.493966 -92.075865 278 36044ft 432kts
29-May-17 06:22 29.515147 -92.211089 277 36042ft 432kts
29-May-17 06:23 29.535527 -92.346425 277 36041ft 432kts
29-May-17 06:24 29.555795 -92.482210 278 36040ft 432kts
29-May-17 06:25 29.576704 -92.617198 276 36038ft 433kts
29-May-17 06:26 29.597190 -92.753614 276 36046ft 434kts
29-May-17 06:27 29.617226 -92.888570 276 36045ft 434kts
29-May-17 06:28 29.637343 -93.025193 276 36044ft 434kts
29-May-17 06:29 29.657281 -93.161619 276 36043ft 434kts
29-May-17 06:30 29.677127 -93.298414 276 36042ft 434kts
29-May-17 06:31 29.696831 -93.435288 276 36041ft 434kts
29-May-17 06:32 29.715616 -93.572132 275 36040ft 434kts
29-May-17 06:33 29.734580 -93.707505 275 36048ft 434kts
29-May-17 06:34 29.753731 -93.843811 275 36065ft 434kts
29-May-17 06:35 29.773181 -93.980564 275 36073ft 434kts
29-May-17 06:36 29.792739 -94.117726 275 36072ft 434kts
29-May-17 06:37 29.811201 -94.254293 275 36094ft 434kts
29-May-17 06:38 29.829458 -94.391494 275 36096ft 434kts
29-May-17 06:39 29.848469 -94.528504 275 36095ft 434kts
29-May-17 06:40 29.866863 -94.662922 275 36099ft 434kts
29-May-17 06:41 29.885151 -94.799770 274 36102ft 434kts
29-May-17 06:42 29.902983 -94.936480 274 36101ft 434kts
29-May-17 06:43 29.921069 -95.073279 274 36075ft 434kts
29-May-17 06:44 29.938897 -95.210218 274 36072ft 434kts
29-May-17 06:45 29.955307 -95.337419 275 36071ft 434kts
29-May-17 06:46 29.976944 -95.474135 276 36070ft 435kts
29-May-17 06:47 29.998294 -95.610364 276 36068ft 435kts
29-May-17 06:48 30.019210 -95.742562 276 36076ft 435kts
29-May-17 06:49 30.040829 -95.879765 276 36075ft 435kts
29-May-17 06:50 30.062294 -96.015752 276 36076ft 435kts
29-May-17 06:51 30.083862 -96.152582 276 36126ft 434kts
29-May-17 06:52 30.103136 -96.277249 276 36121ft 434kts
29-May-17 06:53 30.122690 -96.407438 276 36119ft 434kts
29-May-17 06:54 30.143557 -96.544322 276 36118ft 434kts
29-May-17 06:55 30.163808 -96.675915 276 36125ft 434kts
29-May-17 06:56 30.184006 -96.810063 276 36125ft 434kts
29-May-17 06:57 30.204359 -96.946539 276 36124ft 434kts
29-May-17 06:58 30.224346 -97.082840 276 36123ft 434kts
29-May-17 06:59 30.244222 -97.220230 276 36122ft 434kts
29-May-17 07:00 30.264175 -97.357504 276 36120ft 434kts
29-May-17 07:01 30.284012 -97.493155 276 36146ft 434kts
29-May-17 07:02 30.303582 -97.630022 276 36145ft 434kts
29-May-17 07:03 30.322125 -97.758677 276 36153ft 433kts
29-May-17 07:04 30.341465 -97.894598 275 36101ft 433kts
29-May-17 07:05 30.359700 -98.029350 275 36106ft 433kts
29-May-17 07:06 30.378498 -98.166479 275 36149ft 433kts
29-May-17 07:07 30.397202 -98.302243 276 36064ft 433kts
29-May-17 07:08 30.415688 -98.434587 276 36090ft 434kts
29-May-17 07:09 30.434332 -98.570687 276 35986ft 434kts
29-May-17 07:10 30.451831 -98.697271 275 36072ft 433kts
29-May-17 07:11 30.470185 -98.833656 275 36178ft 433kts
29-May-17 07:12 30.488241 -98.969558 275 36179ft 433kts
29-May-17 07:13 30.506007 -99.107088 275 36178ft 433kts
29-May-17 07:14 30.523761 -99.244106 275 36160ft 433kts
29-May-17 07:15 30.541421 -99.382040 275 36149ft 433kts
29-May-17 07:16 30.558618 -99.518150 275 36148ft 433kts
29-May-17 07:17 30.576189 -99.654866 275 36148ft 433kts
29-May-17 07:18 30.593405 -99.789391 275 36154ft 433kts
29-May-17 07:19 30.610673 -99.927553 275 36153ft 433kts
29-May-17 07:20 30.628059 -100.065404 275 36152ft 433kts
29-May-17 07:21 30.644913 -100.202835 275 36151ft 433kts
29-May-17 07:22 30.661630 -100.340873 275 36203ft 433kts
29-May-17 07:23 30.678158 -100.478675 275 36203ft 433kts
29-May-17 07:24 30.694609 -100.617122 275 36202ft 433kts
29-May-17 07:25 30.710572 -100.752691 274 36209ft 433kts
29-May-17 07:26 30.726659 -100.890587 274 36208ft 432kts
29-May-17 07:27 30.742203 -101.028187 274 36207ft 432kts
29-May-17 07:28 30.757970 -101.166802 274 36206ft 432kts
29-May-17 07:29 30.773635 -101.305070 274 36205ft 432kts
29-May-17 07:30 30.789160 -101.443315 274 36203ft 432kts
29-May-17 07:31 30.804218 -101.581828 274 36202ft 432kts
29-May-17 07:32 30.819162 -101.718552 274 36210ft 432kts
29-May-17 07:33 30.834231 -101.856885 274 36209ft 432kts
29-May-17 07:34 30.849173 -101.995338 274 36208ft 432kts
29-May-17 07:35 30.863965 -102.133776 274 36207ft 432kts
29-May-17 07:36 30.878603 -102.272184 274 36205ft 432kts
29-May-17 07:37 30.893064 -102.410365 274 36204ft 432kts
29-May-17 07:38 30.907444 -102.549237 274 36203ft 432kts
29-May-17 07:39 30.921377 -102.685189 274 36211ft 432kts
29-May-17 07:40 30.935451 -102.823937 274 36210ft 432kts
29-May-17 07:41 30.949785 -102.962326 276 36208ft 433kts
29-May-17 07:42 30.984367 -103.097498 284 36208ft 436kts
29-May-17 07:43 31.021232 -103.231908 284 36206ft 436kts
29-May-17 07:44 31.058125 -103.366200 284 36205ft 437kts
29-May-17 07:45 31.095289 -103.501035 284 36204ft 436kts
29-May-17 07:46 31.129593 -103.627280 284 36199ft 436kts
29-May-17 07:47 31.165472 -103.760170 283 36207ft 436kts
29-May-17 07:48 31.201394 -103.895081 283 36206ft 436kts
29-May-17 07:49 31.237121 -104.029822 283 36205ft 436kts
29-May-17 07:50 31.272972 -104.164832 283 36204ft 436kts
29-May-17 07:51 31.308375 -104.300532 283 36203ft 436kts
29-May-17 07:52 31.343805 -104.435242 283 36218ft 436kts
29-May-17 07:53 31.379764 -104.570570 284 36281ft 436kts
29-May-17 07:54 31.414502 -104.702842 283 36290ft 436kts
29-May-17 07:55 31.449846 -104.838563 282 36286ft 437kts
29-May-17 07:56 31.485276 -104.975010 283 36287ft 438kts
29-May-17 07:57 31.520716 -105.110918 282 36286ft 438kts
29-May-17 07:58 31.554748 -105.247344 282 36285ft 438kts
29-May-17 07:59 31.589283 -105.383595 283 36284ft 438kts
29-May-17 08:00 31.624058 -105.520257 282 36283ft 438kts
29-May-17 08:01 31.657930 -105.655289 282 36228ft 438kts
29-May-17 08:02 31.691770 -105.790139 282 36209ft 438kts
29-May-17 08:03 31.725959 -105.926948 282 36208ft 438kts
29-May-17 08:04 31.760161 -106.064334 281 36186ft 445kts
29-May-17 08:05 31.795528 -106.205210 282 36210ft 456kts
29-May-17 08:06 31.826174 -106.348459 276 36183ft 452kts
29-May-17 08:07 31.849827 -106.493437 276 36180ft 452kts
29-May-17 08:08 31.873259 -106.638311 276 36179ft 452kts
29-May-17 08:09 31.895557 -106.778793 276 36184ft 453kts
29-May-17 08:10 31.918589 -106.923244 276 36210ft 453kts
29-May-17 08:11 31.941638 -107.068650 276 36209ft 453kts
29-May-17 08:12 31.964083 -107.213928 276 36209ft 453kts
29-May-17 08:13 31.987019 -107.359690 276 36208ft 453kts
29-May-17 08:14 32.009847 -107.504681 276 36181ft 453kts
29-May-17 08:15 32.032484 -107.649692 276 36180ft 453kts
29-May-17 08:16 32.053975 -107.790548 275 36185ft 453kts
29-May-17 08:17 32.075679 -107.936726 275 36184ft 453kts
29-May-17 08:18 32.097129 -108.082311 275 36184ft 453kts
29-May-17 08:19 32.117329 -108.219117 275 36175ft 453kts
29-May-17 08:20 32.139715 -108.364875 275 36173ft 452kts
29-May-17 08:21 32.161107 -108.511102 275 36174ft 452kts
29-May-17 08:22 32.181288 -108.651794 275 36173ft 452kts
29-May-17 08:23 32.201365 -108.792123 277 36177ft 437kts
29-May-17 08:24 32.221679 -108.933651 277 36071ft 440kts
29-May-17 08:25 32.241382 -109.075552 277 36070ft 440kts
29-May-17 08:26 32.261365 -109.218174 277 36069ft 440kts
29-May-17 08:27 32.299239 -109.355378 289 36070ft 444kts
29-May-17 08:28 32.346264 -109.490161 289 36059ft 446kts
29-May-17 08:29 32.393135 -109.624805 289 36067ft 445kts
29-May-17 08:30 32.431708 -109.736037 289 36072ft 445kts
29-May-17 08:31 32.478424 -109.871241 289 36072ft 445kts
29-May-17 08:32 32.524824 -110.006087 289 36071ft 445kts
29-May-17 08:33 32.571961 -110.141758 289 36070ft 445kts
29-May-17 08:34 32.618369 -110.277376 289 36069ft 445kts
29-May-17 08:35 32.664524 -110.413141 289 36069ft 445kts
29-May-17 08:36 32.711121 -110.548888 289 36069ft 444kts
29-May-17 08:37 32.752864 -110.672433 288 35992ft 446kts
29-May-17 08:38 32.798637 -110.808730 288 35966ft 446kts
29-May-17 08:39 32.844072 -110.944665 288 35991ft 446kts
29-May-17 08:40 32.888953 -111.081078 288 35991ft 446kts
29-May-17 08:41 32.932038 -111.218762 288 35990ft 446kts
29-May-17 08:42 32.976490 -111.355719 288 35989ft 446kts
29-May-17 08:43 33.021272 -111.492382 288 35938ft 446kts
29-May-17 08:44 33.066103 -111.629484 288 35938ft 447kts
29-May-17 08:45 33.108898 -111.760852 288 35936ft 446kts
29-May-17 08:46 33.152868 -111.896409 288 35935ft 447kts
29-May-17 08:47 33.198843 -112.033913 289 35934ft 448kts
29-May-17 08:48 33.244655 -112.170521 287 35907ft 447kts
29-May-17 08:49 33.288395 -112.308133 288 35906ft 447kts
29-May-17 08:50 33.332974 -112.446605 288 35905ft 447kts
29-May-17 08:51 33.376940 -112.585080 287 35905ft 447kts
29-May-17 08:52 33.419361 -112.719274 287 35913ft 448kts
29-May-17 08:53 33.460454 -112.858923 282 35911ft 446kts
29-May-17 08:54 33.494408 -113.001609 283 35909ft 446kts
29-May-17 08:55 33.527442 -113.144310 282 35908ft 446kts
29-May-17 08:56 33.560634 -113.287390 282 35907ft 446kts
29-May-17 08:57 33.593822 -113.430764 282 35907ft 447kts
29-May-17 08:58 33.626730 -113.573666 282 35906ft 447kts
29-May-17 08:59 33.658287 -113.712795 281 35906ft 448kts
29-May-17 09:00 33.689343 -113.855637 281 35888ft 447kts
29-May-17 09:01 33.721266 -113.999683 282 35883ft 447kts
29-May-17 09:02 33.753379 -114.143551 280 35882ft 447kts
29-May-17 09:03 33.773755 -114.289839 276 35881ft 445kts
29-May-17 09:04 33.791384 -114.437356 275 35881ft 445kts
29-May-17 09:05 33.808049 -114.584201 275 35880ft 445kts
29-May-17 09:06 33.823079 -114.720777 274 35885ft 445kts
29-May-17 09:07 33.836992 -114.843308 275 35885ft 444kts
29-May-17 09:08 33.856791 -115.015315 275 35884ft 446kts
29-May-17 09:09 33.871810 -115.150300 275 35883ft 446kts
29-May-17 09:10 33.882711 -115.252736 274 35926ft 446kts
29-May-17 09:11 33.898662 -115.400782 275 36016ft 446kts
29-May-17 09:12 33.914026 -115.544173 274 36000ft 429kts
29-May-17 09:13 33.926608 -115.662585 272 34936ft 437kts
29-May-17 09:14 33.934741 -115.776366 271 32610ft 438kts
29-May-17 09:15 33.946816 -115.948819 271 29465ft 448kts
29-May-17 09:16 33.954922 -116.070241 272 27509ft 436kts
29-May-17 09:17 33.962430 -116.206730 264 25441ft 420kts
29-May-17 09:18 33.948472 -116.330130 259 24162ft 390kts
29-May-17 09:19 33.933346 -116.454759 259 22327ft 374kts
29-May-17 09:20 33.918059 -116.576472 259 20258ft 369kts
29-May-17 09:21 33.906563 -116.664848 259 18326ft 360kts
29-May-17 09:22 33.895181 -116.754238 259 16258ft 349kts
29-May-17 09:23 33.882666 -116.868633 260 14583ft 340kts
29-May-17 09:24 33.871035 -116.973542 259 12996ft 303kts
29-May-17 09:25 33.860360 -117.070362 259 11485ft 288kts
29-May-17 09:26 33.849795 -117.165731 259 9972ft 289kts
29-May-17 09:27 33.837329 -117.276445 260 8820ft 288kts
29-May-17 09:28 33.828565 -117.354193 260 7993ft 276kts
29-May-17 09:29 33.819272 -117.436211 259 7982ft 232kts
29-May-17 09:30 33.806630 -117.509614 272 7595ft 226kts
29-May-17 09:31 33.810701 -117.584180 272 6031ft 221kts
29-May-17 09:32 33.823459 -117.637804 302 5477ft 212kts
29-May-17 09:33 33.845688 -117.678309 301 4317ft 208kts
29-May-17 09:34 33.865479 -117.733437 251 3968ft 207kts
29-May-17 09:35 33.826038 -117.773988 207 2950ft 192kts
29-May-17 09:36 33.780710 -117.802129 209 2250ft 167kts
29-May-17 09:37 33.744219 -117.825374 207 1445ft 145kts
29-May-17 09:38 33.708394 -117.848229 208 683ft 151kts
29-May-17 09:39 33.673476 -117.870237 207 57ft 87kts
29-May-17 09:40 33.668197 -117.871880 40 57ft 13kts
29-May-17 09:41 33.671869 -117.868352 30 57ft 28kts
29-May-17 09:42 33.678243 -117.863946 27 57ft 12kts
29-May-17 09:43 33.678516 -117.862928 115 57ft 0kts
29-May-17 09:44 33.678516 -117.862928 115 57ft 0kts
29-May-17 09:45 33.678516 -117.862928 115 57ft 0kts
29-May-17 09:46 33.678516 -117.862928 115 57ft 0kts
29-May-17 09:47 33.678516 -117.862928 115 57ft 0kts

Navigation Log

Ident Type
Flight plan parsing failed, navigation log unavailable